CheckWX is a tool to help pilots better visualize weather data.  It is not intended as a substitute for an official pre-flight weather briefing.

14:49:08 UTC

KOZR TAF
Cairns AAF (Fort Rucker) Airport
Fort Rucker/Ozark, Alabama, USA
TAF AMD KOZR 231015Z 2310/2414 01006KT 9999 SKC QNH3010INS TX20/2321Z TN05/2312Z

Mar-23@
10:00 UTC

Mar-23 @ 10:00 UTC

Mar-24@
14:00 UTC

Mar-24 @ 14:00 UTC

TAF AMD KOZR 231015Z 2310/2414 01006KT 9999 SKC QNH3010INS TX20/2321Z TN05/2312Z
Wind
  • 010° at 6 KTS
Cloud Levels
  • Clear skies